createdAt,value
2018-10-04T00:00:26.390Z,0.00
2018-10-04T00:01:26.403Z,0.00
2018-10-04T00:02:26.431Z,0.00
2018-10-04T00:03:26.442Z,0.00
2018-10-04T00:04:26.478Z,0.00
2018-10-04T00:05:26.478Z,0.00
2018-10-04T00:06:26.490Z,0.00
2018-10-04T00:07:26.508Z,0.00
2018-10-04T00:08:26.522Z,0.00
2018-10-04T00:09:26.563Z,0.00
2018-10-04T00:10:26.561Z,0.00
2018-10-04T00:11:26.583Z,0.00
2018-10-04T00:12:26.590Z,0.00
2018-10-04T00:13:26.593Z,0.00
2018-10-04T00:14:26.621Z,0.00
2018-10-04T00:15:26.638Z,0.00
2018-10-04T00:16:26.643Z,0.00
2018-10-04T00:17:26.659Z,0.00
2018-10-04T00:18:26.675Z,0.00
2018-10-04T00:19:26.690Z,0.00
2018-10-04T00:20:26.722Z,0.00
2018-10-04T00:21:26.723Z,0.00
2018-10-04T00:22:26.734Z,0.00
2018-10-04T00:23:26.772Z,0.00
2018-10-04T00:24:26.766Z,0.00
2018-10-04T00:25:26.782Z,0.00
2018-10-04T00:26:26.797Z,0.00
2018-10-04T00:27:26.814Z,0.00
2018-10-04T00:28:26.845Z,0.00
2018-10-04T00:29:26.847Z,0.00
2018-10-04T00:30:26.867Z,0.00
2018-10-04T00:31:26.878Z,0.00
2018-10-04T00:32:26.892Z,0.00
2018-10-04T00:33:26.908Z,0.00
2018-10-04T00:34:26.938Z,0.00
2018-10-04T00:35:26.943Z,0.00
2018-10-04T00:36:26.955Z,0.00
2018-10-04T00:37:26.975Z,0.00
2018-10-04T00:38:26.999Z,0.00
2018-10-04T00:39:27.003Z,0.00
2018-10-04T00:40:27.033Z,0.00
2018-10-04T00:41:27.040Z,0.00
2018-10-04T00:42:27.060Z,0.00
2018-10-04T00:43:27.071Z,0.00
2018-10-04T00:44:27.083Z,0.00
2018-10-04T00:45:27.098Z,0.00
2018-10-04T00:46:27.116Z,0.00
2018-10-04T00:47:27.128Z,0.00
2018-10-04T00:48:27.148Z,0.00
2018-10-04T00:49:27.162Z,0.00
2018-10-04T00:50:27.178Z,0.00
2018-10-04T00:51:27.196Z,0.00
2018-10-04T00:52:27.204Z,0.00
2018-10-04T00:53:27.232Z,0.00
2018-10-04T00:54:27.243Z,0.00
2018-10-04T00:55:27.257Z,0.00
2018-10-04T00:56:27.276Z,0.00
2018-10-04T00:57:27.284Z,0.00
2018-10-04T00:58:27.301Z,0.00
2018-10-04T00:59:27.331Z,0.00
2018-10-04T01:00:27.363Z,0.00
2018-10-04T01:01:27.357Z,0.00
2018-10-04T01:02:27.365Z,0.00
2018-10-04T01:03:27.394Z,0.00
2018-10-04T01:04:27.391Z,0.00
2018-10-04T01:05:27.412Z,0.00
2018-10-04T01:06:27.443Z,0.00
2018-10-04T01:07:27.449Z,0.00
2018-10-04T01:08:27.461Z,0.00
2018-10-04T01:09:27.476Z,0.00
2018-10-04T01:10:27.500Z,0.00
2018-10-04T01:11:27.506Z,0.00
2018-10-04T01:12:27.526Z,0.00
2018-10-04T01:13:27.535Z,0.00
2018-10-04T01:14:27.559Z,0.00
2018-10-04T01:15:27.570Z,0.00
2018-10-04T01:16:27.600Z,0.00
2018-10-04T01:17:27.602Z,0.00
2018-10-04T01:18:27.637Z,0.00
2018-10-04T01:19:27.656Z,0.00
2018-10-04T01:20:27.650Z,0.00
2018-10-04T01:21:27.658Z,0.00
2018-10-04T01:22:27.679Z,0.00
2018-10-04T01:23:27.693Z,0.00
2018-10-04T01:24:27.721Z,0.00
2018-10-04T01:25:27.729Z,0.00
2018-10-04T01:26:27.740Z,0.00
2018-10-04T01:27:27.754Z,0.00
2018-10-04T01:28:27.778Z,0.00
2018-10-04T01:29:27.795Z,0.00
2018-10-04T01:30:27.804Z,0.00
2018-10-04T01:31:27.893Z,0.00
2018-10-04T01:32:27.833Z,0.00
2018-10-04T01:33:27.849Z,0.00
2018-10-04T01:34:27.884Z,0.00
2018-10-04T01:35:27.879Z,0.00
2018-10-04T01:36:27.898Z,0.00
2018-10-04T01:37:27.907Z,0.00
2018-10-04T01:38:27.927Z,0.00
2018-10-04T01:39:27.952Z,0.00
2018-10-04T01:40:27.966Z,0.00
2018-10-04T01:41:27.971Z,0.00
2018-10-04T01:42:28.003Z,0.00
2018-10-04T01:43:28.017Z,0.00
2018-10-04T01:44:28.038Z,0.00
2018-10-04T01:45:28.039Z,0.00
2018-10-04T01:46:28.061Z,0.00
2018-10-04T01:47:28.072Z,0.00
2018-10-04T01:48:28.087Z,0.00
2018-10-04T01:49:28.113Z,0.00
2018-10-04T01:50:28.123Z,0.00
2018-10-04T01:51:28.132Z,0.00
2018-10-04T01:52:28.150Z,0.00
2018-10-04T01:53:28.158Z,0.00
2018-10-04T01:54:28.183Z,0.00
2018-10-04T01:55:28.191Z,0.00
2018-10-04T01:56:28.207Z,0.00
2018-10-04T01:57:28.237Z,0.00
2018-10-04T01:58:28.270Z,0.00
2018-10-04T01:59:28.257Z,0.00
2018-10-04T02:00:28.267Z,0.00
2018-10-04T02:01:28.286Z,0.00
2018-10-04T02:02:28.303Z,0.00
2018-10-04T02:03:28.327Z,0.00
2018-10-04T02:04:28.335Z,0.00
2018-10-04T02:05:28.349Z,0.00
2018-10-04T02:06:28.369Z,0.00
2018-10-04T02:07:28.379Z,0.00
2018-10-04T02:08:28.413Z,0.00
2018-10-04T02:09:28.414Z,0.00
2018-10-04T02:10:28.432Z,0.00
2018-10-04T02:11:28.455Z,0.00
2018-10-04T02:12:28.468Z,0.00
2018-10-04T02:13:28.478Z,0.00
2018-10-04T02:14:28.503Z,0.00
2018-10-04T02:15:28.502Z,0.00
2018-10-04T02:16:28.532Z,0.00
2018-10-04T02:17:28.536Z,0.00
2018-10-04T02:18:28.571Z,0.00
2018-10-04T02:19:28.566Z,0.00
2018-10-04T02:20:28.585Z,0.00
2018-10-04T02:21:28.638Z,0.00
2018-10-04T02:22:28.625Z,0.00
2018-10-04T02:23:28.635Z,0.00
2018-10-04T02:24:28.645Z,0.00
2018-10-04T02:25:28.668Z,0.00
2018-10-04T02:26:28.678Z,0.00
2018-10-04T02:27:28.714Z,0.00
2018-10-04T02:28:28.707Z,0.00
2018-10-04T02:29:28.733Z,0.00
2018-10-04T02:30:28.735Z,0.00
2018-10-04T02:31:28.755Z,0.00
2018-10-04T02:32:28.776Z,0.00
2018-10-04T02:33:28.815Z,0.00
2018-10-04T02:34:28.801Z,0.00
2018-10-04T02:35:28.815Z,0.00
2018-10-04T02:36:28.836Z,0.00
2018-10-04T02:37:28.849Z,0.00
2018-10-04T02:38:28.866Z,0.00
2018-10-04T02:39:28.896Z,0.00
2018-10-04T02:40:28.901Z,0.00
2018-10-04T02:41:28.906Z,0.00
2018-10-04T02:42:28.980Z,0.00
2018-10-04T02:43:28.938Z,0.00
2018-10-04T02:44:28.951Z,0.00
2018-10-04T02:45:28.970Z,0.00
2018-10-04T02:46:28.985Z,0.00
2018-10-04T02:47:29.000Z,0.00
2018-10-04T02:48:29.023Z,0.00
2018-10-04T02:49:29.061Z,0.00
2018-10-04T02:50:29.076Z,0.00
2018-10-04T02:51:29.060Z,0.00
2018-10-04T02:52:29.077Z,0.00
2018-10-04T02:53:29.094Z,0.00
2018-10-04T02:54:29.140Z,0.00
2018-10-04T02:55:29.134Z,0.00
2018-10-04T02:56:29.140Z,0.00
2018-10-04T02:57:29.161Z,0.00
2018-10-04T02:58:29.172Z,0.00
2018-10-04T02:59:29.205Z,0.00
2018-10-04T03:00:29.213Z,0.00
2018-10-04T03:01:29.224Z,0.00
2018-10-04T03:02:29.243Z,0.00
2018-10-04T03:03:29.291Z,0.00
2018-10-04T03:04:29.267Z,0.00
2018-10-04T03:05:29.283Z,0.00
2018-10-04T03:06:29.301Z,0.00
2018-10-04T03:07:29.335Z,0.00
2018-10-04T03:08:29.334Z,0.00
2018-10-04T03:09:29.363Z,0.00
2018-10-04T03:10:29.368Z,0.00
2018-10-04T03:11:29.391Z,0.00
2018-10-04T03:12:29.402Z,0.00
2018-10-04T03:13:29.433Z,0.00
2018-10-04T03:14:29.426Z,0.00
2018-10-04T03:15:29.449Z,0.00
2018-10-04T03:16:29.512Z,0.00
2018-10-04T03:17:29.470Z,0.00
2018-10-04T03:18:29.513Z,0.00
2018-10-04T03:19:29.517Z,0.00
2018-10-04T03:20:29.530Z,0.00
2018-10-04T03:21:29.575Z,0.00
2018-10-04T03:22:29.564Z,0.00
2018-10-04T03:23:29.563Z,0.00
2018-10-04T03:24:29.601Z,0.00
2018-10-04T03:25:29.606Z,0.00
2018-10-04T03:26:29.610Z,0.00
2018-10-04T03:27:29.633Z,0.00
2018-10-04T03:28:29.650Z,0.00
2018-10-04T03:29:29.688Z,0.00
2018-10-04T03:30:29.693Z,0.00
2018-10-04T03:31:29.708Z,0.00
2018-10-04T03:32:29.707Z,0.00
2018-10-04T03:33:29.727Z,0.00
2018-10-04T03:34:29.747Z,0.00
2018-10-04T03:35:29.753Z,0.00
2018-10-04T03:36:29.771Z,0.00
2018-10-04T03:37:29.790Z,0.00
2018-10-04T03:38:29.804Z,0.00
2018-10-04T03:39:29.826Z,0.00
2018-10-04T03:40:29.847Z,0.00
2018-10-04T03:41:29.848Z,0.00
2018-10-04T03:42:29.880Z,0.00
2018-10-04T03:43:29.886Z,0.00
2018-10-04T03:44:29.898Z,0.00
2018-10-04T03:45:29.928Z,0.00
2018-10-04T03:46:29.945Z,0.00
2018-10-04T03:47:29.944Z,0.00
2018-10-04T03:48:29.982Z,0.00
2018-10-04T03:49:29.980Z,0.00
2018-10-04T03:50:30.001Z,0.00
2018-10-04T03:51:30.028Z,0.00
2018-10-04T03:52:30.037Z,0.00
2018-10-04T03:53:30.047Z,0.00
2018-10-04T03:54:30.060Z,0.00
2018-10-04T03:55:30.078Z,0.00
2018-10-04T03:56:30.090Z,0.00
2018-10-04T03:57:30.111Z,0.00
2018-10-04T03:58:30.130Z,0.00
2018-10-04T03:59:30.136Z,0.00
2018-10-04T04:00:30.149Z,0.00
2018-10-04T04:01:30.177Z,0.00
2018-10-04T04:02:30.188Z,0.00
2018-10-04T04:03:30.209Z,0.00
2018-10-04T04:04:30.261Z,0.00
2018-10-04T04:05:30.237Z,0.00
2018-10-04T04:06:30.253Z,0.00
2018-10-04T04:07:30.273Z,0.00
2018-10-04T04:08:30.288Z,0.00
2018-10-04T04:09:30.300Z,0.00
2018-10-04T04:10:30.318Z,0.00
2018-10-04T04:11:30.332Z,0.00
2018-10-04T04:12:30.351Z,0.00
2018-10-04T04:13:30.371Z,0.00
2018-10-04T04:14:30.386Z,0.00
2018-10-04T04:15:30.399Z,0.00
2018-10-04T04:16:30.412Z,0.00
2018-10-04T04:17:30.430Z,0.00
2018-10-04T04:18:30.471Z,0.00
2018-10-04T04:19:30.457Z,0.00
2018-10-04T04:20:30.495Z,0.00
2018-10-04T04:21:30.499Z,0.00
2018-10-04T04:22:30.528Z,0.00
2018-10-04T04:23:30.530Z,0.00
2018-10-04T04:24:30.549Z,0.00
2018-10-04T04:25:30.557Z,0.00
2018-10-04T04:26:30.599Z,0.00
2018-10-04T04:27:30.597Z,0.00
2018-10-04T04:28:30.610Z,0.00
2018-10-04T04:29:30.627Z,0.00
2018-10-04T04:30:30.652Z,0.00
2018-10-04T04:31:30.661Z,0.00
2018-10-04T04:32:30.681Z,0.00
2018-10-04T04:33:30.701Z,0.00
2018-10-04T04:34:30.708Z,0.00
2018-10-04T04:35:30.727Z,0.00
2018-10-04T04:36:30.769Z,0.00
2018-10-04T04:37:30.754Z,0.00
2018-10-04T04:38:30.780Z,0.00
2018-10-04T04:39:30.800Z,0.00
2018-10-04T04:40:30.800Z,0.00
2018-10-04T04:41:30.819Z,0.00
2018-10-04T04:42:30.832Z,0.00
2018-10-04T04:43:30.845Z,0.00
2018-10-04T04:44:30.868Z,0.00
2018-10-04T04:45:30.886Z,0.00
2018-10-04T04:46:30.959Z,0.00
2018-10-04T04:47:30.940Z,0.00
2018-10-04T04:48:30.934Z,0.00
2018-10-04T04:49:30.945Z,0.00
2018-10-04T04:50:30.978Z,0.00
2018-10-04T04:51:30.979Z,0.00
2018-10-04T04:52:31.003Z,0.00
2018-10-04T04:53:31.018Z,0.00
2018-10-04T04:54:31.030Z,0.00
2018-10-04T04:55:31.053Z,0.00
2018-10-04T04:56:31.064Z,0.00
2018-10-04T04:57:31.102Z,4.00
2018-10-04T04:58:31.109Z,4.00
2018-10-04T04:59:31.112Z,0.00
2018-10-04T05:00:31.135Z,0.00
2018-10-04T05:01:31.142Z,4.00
2018-10-04T05:02:31.177Z,4.00
2018-10-04T05:03:31.190Z,4.00
2018-10-04T05:04:31.193Z,8.00
2018-10-04T05:05:31.212Z,4.00
2018-10-04T05:06:31.274Z,4.00
2018-10-04T05:07:31.241Z,8.00
2018-10-04T05:08:31.265Z,4.00
2018-10-04T05:09:31.283Z,8.00
2018-10-04T05:10:31.300Z,8.00
2018-10-04T05:11:31.313Z,12.00
2018-10-04T05:12:31.324Z,12.00
2018-10-04T05:13:31.345Z,12.00
2018-10-04T05:14:31.371Z,16.00
2018-10-04T05:15:31.373Z,16.00
2018-10-04T05:16:31.386Z,16.00
2018-10-04T05:17:31.474Z,20.00
2018-10-04T05:18:31.432Z,20.00
2018-10-04T05:19:31.445Z,28.00
2018-10-04T05:20:31.458Z,32.00
2018-10-04T05:21:31.481Z,36.00
2018-10-04T05:22:31.624Z,40.00
2018-10-04T05:23:31.517Z,44.00
2018-10-04T05:24:31.527Z,52.00
2018-10-04T05:25:31.539Z,64.00
2018-10-04T05:26:31.556Z,72.00
2018-10-04T05:27:31.573Z,76.00
2018-10-04T05:28:31.595Z,88.00
2018-10-04T05:29:31.621Z,96.00
2018-10-04T05:30:31.626Z,104.00
2018-10-04T05:31:31.648Z,108.00
2018-10-04T05:32:31.668Z,116.00
2018-10-04T05:33:31.672Z,116.00
2018-10-04T05:34:31.697Z,120.00
2018-10-04T05:35:31.704Z,124.00
2018-10-04T05:36:31.718Z,132.00
2018-10-04T05:37:31.751Z,152.00
2018-10-04T05:38:31.764Z,164.00
2018-10-04T05:39:31.771Z,168.00
2018-10-04T05:40:31.795Z,172.00
2018-10-04T05:41:31.817Z,172.00
2018-10-04T05:42:31.826Z,172.00
2018-10-04T05:43:31.841Z,188.00
2018-10-04T05:44:31.853Z,204.00
2018-10-04T05:45:31.934Z,216.00
2018-10-04T05:46:31.887Z,224.00
2018-10-04T05:47:31.907Z,224.00
2018-10-04T05:48:31.921Z,236.00
2018-10-04T05:49:31.975Z,244.00
2018-10-04T05:50:31.955Z,260.00
2018-10-04T05:51:31.992Z,284.00
2018-10-04T05:52:31.989Z,316.00
2018-10-04T05:53:32.083Z,336.00
2018-10-04T05:54:32.019Z,348.00
2018-10-04T05:55:32.036Z,372.00
2018-10-04T05:56:32.056Z,400.00
2018-10-04T05:57:32.073Z,408.00
2018-10-04T05:58:32.100Z,396.00
2018-10-04T05:59:32.183Z,352.00
2018-10-04T06:00:32.115Z,332.00
2018-10-04T06:01:32.140Z,376.00
2018-10-04T06:02:32.162Z,432.00
2018-10-04T06:03:32.173Z,456.00
2018-10-04T06:04:32.193Z,436.00
2018-10-04T06:05:32.207Z,444.00
2018-10-04T06:06:32.228Z,472.00
2018-10-04T06:07:32.242Z,512.00
2018-10-04T06:08:32.258Z,556.00
2018-10-04T06:09:32.282Z,568.00
2018-10-04T06:10:32.296Z,552.00
2018-10-04T06:11:32.314Z,524.00
2018-10-04T06:12:32.325Z,572.00
2018-10-04T06:13:32.344Z,628.00
2018-10-04T06:14:32.362Z,604.00
2018-10-04T06:15:32.422Z,616.00
2018-10-04T06:16:32.387Z,668.00
2018-10-04T06:17:32.410Z,720.00
2018-10-04T06:18:32.421Z,772.00
2018-10-04T06:19:32.440Z,836.00
2018-10-04T06:20:32.458Z,828.00
2018-10-04T06:21:32.482Z,808.00
2018-10-04T06:22:32.504Z,872.00
2018-10-04T06:23:32.507Z,892.00
2018-10-04T06:24:32.521Z,888.00
2018-10-04T06:25:32.538Z,896.00
2018-10-04T06:26:32.563Z,932.00
2018-10-04T06:27:32.582Z,956.00
2018-10-04T06:28:32.672Z,1024.00
2018-10-04T06:29:32.610Z,1108.00
2018-10-04T06:30:32.652Z,1072.00
2018-10-04T06:31:32.638Z,1036.00
2018-10-04T06:32:32.658Z,1060.00
2018-10-04T06:33:32.676Z,1152.00
2018-10-04T06:34:32.696Z,1216.00
2018-10-04T06:35:32.710Z,1044.00
2018-10-04T06:36:32.736Z,928.00
2018-10-04T06:37:32.763Z,928.00
2018-10-04T06:38:32.771Z,1028.00
2018-10-04T06:39:32.790Z,1104.00
2018-10-04T06:40:32.802Z,1272.00
2018-10-04T06:41:32.817Z,1320.00
2018-10-04T06:42:32.842Z,1336.00
2018-10-04T06:43:32.855Z,1368.00
2018-10-04T06:44:32.866Z,1332.00
2018-10-04T06:45:32.880Z,1280.00
2018-10-04T06:46:32.906Z,1384.00
2018-10-04T06:47:32.912Z,1608.00
2018-10-04T06:48:32.957Z,1640.00
2018-10-04T06:49:32.952Z,1580.00
2018-10-04T06:50:32.969Z,1496.00
2018-10-04T06:51:32.983Z,1328.00
2018-10-04T06:52:33.004Z,1284.00
2018-10-04T06:53:33.028Z,1308.00
2018-10-04T06:54:33.036Z,1372.00
2018-10-04T06:55:33.083Z,1496.00
2018-10-04T06:56:33.071Z,1612.00
2018-10-04T06:57:33.084Z,1736.00
2018-10-04T06:58:33.099Z,1900.00
2018-10-04T06:59:33.124Z,2036.00
2018-10-04T07:00:33.135Z,1948.00
2018-10-04T07:01:33.158Z,1728.00
2018-10-04T07:02:33.166Z,1696.00
2018-10-04T07:03:33.185Z,1884.00
2018-10-04T07:04:33.207Z,2152.00
2018-10-04T07:05:33.222Z,2244.00
2018-10-04T07:06:33.236Z,2244.00
2018-10-04T07:07:33.250Z,2272.00
2018-10-04T07:08:33.268Z,2284.00
2018-10-04T07:09:33.283Z,2312.00
2018-10-04T07:10:33.322Z,2332.00
2018-10-04T07:11:33.323Z,2412.00
2018-10-04T07:12:33.341Z,2424.00
2018-10-04T07:13:33.352Z,2396.00
2018-10-04T07:14:33.379Z,2256.00
2018-10-04T07:15:33.407Z,2176.00
2018-10-04T07:16:33.408Z,2212.00
2018-10-04T07:17:33.434Z,2168.00
2018-10-04T07:18:33.449Z,2124.00
2018-10-04T07:19:33.461Z,2124.00
2018-10-04T07:20:33.599Z,2204.00
2018-10-04T07:21:33.490Z,2144.00
2018-10-04T07:22:33.507Z,2100.00
2018-10-04T07:23:33.526Z,2140.00
2018-10-04T07:24:33.554Z,2180.00
2018-10-04T07:25:33.585Z,2336.00
2018-10-04T07:26:33.575Z,2440.00
2018-10-04T07:27:33.610Z,2512.00
2018-10-04T07:28:33.612Z,2612.00
2018-10-04T07:29:33.653Z,2520.00
2018-10-04T07:30:33.647Z,2440.00
2018-10-04T07:31:33.717Z,2436.00
2018-10-04T07:32:33.685Z,2364.00
2018-10-04T07:33:33.729Z,2340.00
2018-10-04T07:34:33.712Z,2416.00
2018-10-04T07:35:33.728Z,2344.00
2018-10-04T07:36:33.746Z,2212.00
2018-10-04T07:37:33.762Z,2228.00
2018-10-04T07:38:33.780Z,2240.00
2018-10-04T07:39:33.800Z,2160.00
2018-10-04T07:40:33.819Z,2364.00
2018-10-04T07:41:33.849Z,2676.00
2018-10-04T07:42:33.900Z,2780.00
2018-10-04T07:43:33.903Z,2676.00
2018-10-04T07:44:33.886Z,2856.00
2018-10-04T07:45:33.903Z,2972.00
2018-10-04T07:46:33.942Z,3224.00
2018-10-04T07:47:33.943Z,3592.00
2018-10-04T07:48:33.976Z,3400.00
2018-10-04T07:49:33.988Z,3188.00
2018-10-04T07:50:33.990Z,3200.00
2018-10-04T07:51:34.014Z,3148.00
2018-10-04T07:52:34.021Z,3360.00
2018-10-04T07:53:34.042Z,3432.00
2018-10-04T07:54:34.059Z,3336.00
2018-10-04T07:55:34.072Z,3508.00
2018-10-04T07:56:34.115Z,3844.00
2018-10-04T07:57:34.130Z,4104.00
2018-10-04T07:58:34.132Z,4188.00
2018-10-04T07:59:34.143Z,4428.00
2018-10-04T08:00:34.157Z,4480.00
2018-10-04T08:01:34.188Z,4576.00
2018-10-04T08:02:34.197Z,4588.00
2018-10-04T08:03:34.207Z,4388.00
2018-10-04T08:04:34.256Z,4532.00
2018-10-04T08:05:34.267Z,4780.00
2018-10-04T08:06:34.525Z,4928.00
2018-10-04T08:07:34.282Z,4928.00
2018-10-04T08:08:34.304Z,4748.00
2018-10-04T08:09:34.316Z,4716.00
2018-10-04T08:10:34.330Z,4704.00
2018-10-04T08:11:34.353Z,4648.00
2018-10-04T08:12:34.374Z,4704.00
2018-10-04T08:13:34.388Z,4672.00
2018-10-04T08:14:34.415Z,4748.00
2018-10-04T08:15:34.425Z,4832.00
2018-10-04T08:16:34.453Z,5140.00
2018-10-04T08:17:34.454Z,5092.00
2018-10-04T08:18:34.488Z,4896.00
2018-10-04T08:19:34.489Z,4548.00
2018-10-04T08:20:34.516Z,4360.00
2018-10-04T08:21:34.527Z,4328.00
2018-10-04T08:22:34.541Z,4216.00
2018-10-04T08:23:34.562Z,3976.00
2018-10-04T08:24:34.579Z,3556.00
2018-10-04T08:25:34.594Z,3100.00
2018-10-04T08:26:34.615Z,2800.00
2018-10-04T08:27:34.649Z,2772.00
2018-10-04T08:28:34.648Z,2756.00
2018-10-04T08:29:34.684Z,2808.00
2018-10-04T08:30:34.711Z,2736.00
2018-10-04T08:31:34.696Z,2868.00
2018-10-04T08:32:34.712Z,2920.00
2018-10-04T08:33:34.778Z,3044.00
2018-10-04T08:34:34.778Z,2884.00
2018-10-04T08:35:34.771Z,2676.00
2018-10-04T08:36:34.787Z,2628.00
2018-10-04T08:37:34.829Z,2648.00
2018-10-04T08:38:34.837Z,2660.00
2018-10-04T08:39:34.835Z,2652.00
2018-10-04T08:40:34.874Z,2508.00
2018-10-04T08:41:34.895Z,2316.00
2018-10-04T08:42:34.896Z,2280.00
2018-10-04T08:43:34.905Z,2368.00
2018-10-04T08:44:34.931Z,2544.00
2018-10-04T08:45:34.963Z,2668.00
2018-10-04T08:46:34.959Z,2796.00
2018-10-04T08:47:34.981Z,2800.00
2018-10-04T08:48:34.996Z,2684.00
2018-10-04T08:49:35.023Z,2476.00
2018-10-04T08:50:35.042Z,2456.00
2018-10-04T08:51:35.047Z,2700.00
2018-10-04T08:52:35.080Z,2776.00
2018-10-04T08:53:35.081Z,2696.00
2018-10-04T08:54:35.105Z,2724.00
2018-10-04T08:55:35.113Z,2684.00
2018-10-04T08:56:35.140Z,2636.00
2018-10-04T08:57:35.158Z,2524.00
2018-10-04T08:58:35.170Z,2580.00
2018-10-04T08:59:35.201Z,2624.00
2018-10-04T09:00:35.206Z,2600.00
2018-10-04T09:01:35.241Z,2568.00
2018-10-04T09:02:35.239Z,2588.00
2018-10-04T09:03:35.265Z,2656.00
2018-10-04T09:04:35.275Z,2580.00
2018-10-04T09:05:35.285Z,2576.00
2018-10-04T09:06:35.308Z,2624.00
2018-10-04T09:07:35.405Z,2496.00
2018-10-04T09:08:35.342Z,2524.00
2018-10-04T09:09:35.389Z,2464.00
2018-10-04T09:10:35.375Z,2348.00
2018-10-04T09:11:35.389Z,2364.00
2018-10-04T09:12:35.415Z,2452.00
2018-10-04T09:13:35.426Z,2580.00
2018-10-04T09:14:35.455Z,2784.00
2018-10-04T09:15:35.512Z,3012.00
2018-10-04T09:16:35.477Z,3164.00
2018-10-04T09:17:35.497Z,3244.00
2018-10-04T09:18:35.519Z,3436.00
2018-10-04T09:19:35.531Z,3684.00
2018-10-04T09:20:35.551Z,3752.00
2018-10-04T09:21:35.588Z,3640.00
2018-10-04T09:22:35.613Z,3476.00
2018-10-04T09:23:35.602Z,3280.00
2018-10-04T09:24:35.635Z,3060.00
2018-10-04T09:25:35.657Z,2896.00
2018-10-04T09:26:35.655Z,2808.00
2018-10-04T09:27:35.668Z,2640.00
2018-10-04T09:28:35.691Z,2516.00
2018-10-04T09:29:35.722Z,2460.00
2018-10-04T09:30:35.761Z,2404.00
2018-10-04T09:31:35.745Z,2340.00
2018-10-04T09:32:35.762Z,2324.00
2018-10-04T09:33:35.791Z,2348.00
2018-10-04T09:34:35.806Z,2456.00
2018-10-04T09:35:35.843Z,2460.00
2018-10-04T09:36:35.839Z,2500.00
2018-10-04T09:37:35.848Z,2444.00
2018-10-04T09:38:35.895Z,2316.00
2018-10-04T09:39:35.890Z,2280.00
2018-10-04T09:40:35.900Z,2312.00
2018-10-04T09:41:35.927Z,2368.00
2018-10-04T09:42:35.934Z,2428.00
2018-10-04T09:43:35.954Z,2468.00
2018-10-04T09:44:35.973Z,2500.00
2018-10-04T09:45:35.995Z,2436.00
2018-10-04T09:46:36.009Z,2412.00
2018-10-04T09:47:36.029Z,2376.00
2018-10-04T09:48:36.079Z,2372.00
2018-10-04T09:49:36.073Z,2444.00
2018-10-04T09:50:36.088Z,2508.00
2018-10-04T09:51:36.092Z,2524.00
2018-10-04T09:52:36.129Z,2496.00
2018-10-04T09:53:36.141Z,2460.00
2018-10-04T09:54:36.150Z,2476.00
2018-10-04T09:55:36.165Z,2576.00
2018-10-04T09:56:36.190Z,2668.00
2018-10-04T09:57:36.201Z,2676.00
2018-10-04T09:58:36.233Z,2664.00
2018-10-04T09:59:36.304Z,2628.00
2018-10-04T10:00:36.270Z,2676.00
2018-10-04T10:01:36.273Z,2712.00
2018-10-04T10:02:36.291Z,2616.00
2018-10-04T10:03:36.303Z,2580.00
2018-10-04T10:04:36.324Z,2648.00
2018-10-04T10:05:36.391Z,2756.00
2018-10-04T10:06:36.382Z,2808.00
2018-10-04T10:07:36.374Z,2836.00
2018-10-04T10:08:36.387Z,2908.00
2018-10-04T10:09:36.439Z,2888.00
2018-10-04T10:10:36.433Z,2928.00
2018-10-04T10:11:36.455Z,3052.00
2018-10-04T10:12:36.470Z,3180.00
2018-10-04T10:13:36.475Z,3260.00
2018-10-04T10:14:36.501Z,3376.00
2018-10-04T10:15:36.515Z,3236.00
2018-10-04T10:16:36.528Z,3024.00
2018-10-04T10:17:36.543Z,3040.00
2018-10-04T10:18:36.564Z,3196.00
2018-10-04T10:19:36.579Z,3528.00
2018-10-04T10:20:36.597Z,3740.00
2018-10-04T10:21:36.616Z,3784.00
2018-10-04T10:22:36.719Z,3736.00
2018-10-04T10:23:36.653Z,3868.00
2018-10-04T10:24:36.683Z,4184.00
2018-10-04T10:25:36.685Z,4248.00
2018-10-04T10:26:36.699Z,4384.00
2018-10-04T10:27:36.732Z,4156.00
2018-10-04T10:28:36.736Z,3908.00
2018-10-04T10:29:36.755Z,3724.00
2018-10-04T10:30:36.797Z,3752.00
2018-10-04T10:31:36.789Z,4068.00
2018-10-04T10:32:36.805Z,4520.00
2018-10-04T10:33:36.833Z,4752.00
2018-10-04T10:34:36.895Z,5252.00
2018-10-04T10:35:36.881Z,6000.00
2018-10-04T10:36:36.893Z,6480.00
2018-10-04T10:37:36.902Z,6520.00
2018-10-04T10:38:36.916Z,6500.00
2018-10-04T10:39:36.935Z,6568.00
2018-10-04T10:40:37.098Z,6800.00
2018-10-04T10:41:36.974Z,7140.00
2018-10-04T10:42:36.984Z,7424.00
2018-10-04T10:43:36.999Z,7520.00
2018-10-04T10:44:37.021Z,7380.00
2018-10-04T10:45:37.037Z,7188.00
2018-10-04T10:46:37.101Z,6768.00
2018-10-04T10:47:37.072Z,6092.00
2018-10-04T10:48:37.093Z,6140.00
2018-10-04T10:49:37.124Z,6400.00
2018-10-04T10:50:37.131Z,6820.00
2018-10-04T10:51:37.165Z,7008.00
2018-10-04T10:52:37.166Z,7148.00
2018-10-04T10:53:37.182Z,7036.00
2018-10-04T10:54:37.205Z,6816.00
2018-10-04T10:55:37.216Z,6748.00
2018-10-04T10:56:37.232Z,6856.00
2018-10-04T10:57:37.264Z,7136.00
2018-10-04T10:58:37.282Z,7376.00
2018-10-04T10:59:37.302Z,7672.00
2018-10-04T11:00:37.317Z,7932.00
2018-10-04T11:01:37.327Z,8448.00
2018-10-04T11:02:37.358Z,9000.00
2018-10-04T11:03:37.362Z,9580.00
2018-10-04T11:04:37.384Z,9960.00
2018-10-04T11:05:37.396Z,10288.00
2018-10-04T11:06:37.416Z,10644.00
2018-10-04T11:07:37.439Z,11220.00
2018-10-04T11:08:37.460Z,11924.00
2018-10-04T11:09:37.487Z,12388.00
2018-10-04T11:10:38.468Z,12660.00
2018-10-04T11:11:37.512Z,12792.00
2018-10-04T11:12:37.565Z,12816.00
2018-10-04T11:13:37.545Z,12852.00
2018-10-04T11:14:37.571Z,13036.00
2018-10-04T11:15:37.577Z,13172.00
2018-10-04T11:16:37.599Z,13308.00
2018-10-04T11:17:37.636Z,13500.00
2018-10-04T11:18:37.640Z,13656.00
2018-10-04T11:19:37.673Z,13656.00
2018-10-04T11:20:37.666Z,13336.00
2018-10-04T11:21:37.711Z,13108.00
2018-10-04T11:22:37.721Z,12968.00
2018-10-04T11:23:37.737Z,12812.00
2018-10-04T11:24:37.757Z,12600.00
2018-10-04T11:25:37.761Z,12440.00
2018-10-04T11:26:37.782Z,12344.00
2018-10-04T11:27:37.803Z,12192.00
2018-10-04T11:28:37.832Z,11948.00
2018-10-04T11:29:37.838Z,11444.00
2018-10-04T11:30:37.860Z,11192.00
2018-10-04T11:31:37.900Z,11052.00
2018-10-04T11:32:37.896Z,10804.00
2018-10-04T11:33:37.920Z,10532.00
2018-10-04T11:34:37.941Z,10364.00
2018-10-04T11:35:37.959Z,10176.00
2018-10-04T11:36:37.981Z,10176.00
2018-10-04T11:37:37.992Z,10128.00
2018-10-04T11:38:38.014Z,9832.00
2018-10-04T11:39:38.030Z,9224.00
2018-10-04T11:40:38.079Z,8688.00
2018-10-04T11:41:38.072Z,8248.00
2018-10-04T11:42:38.090Z,8276.00
2018-10-04T11:43:38.121Z,8316.00
2018-10-04T11:44:38.132Z,8228.00
2018-10-04T11:45:38.148Z,7848.00
2018-10-04T11:46:38.163Z,7760.00
2018-10-04T11:47:38.187Z,8036.00
2018-10-04T11:48:38.225Z,8168.00
2018-10-04T11:49:38.216Z,8456.00
2018-10-04T11:50:38.243Z,8784.00
2018-10-04T11:51:38.264Z,8336.00
2018-10-04T11:52:38.299Z,7872.00
2018-10-04T11:53:38.294Z,7576.00
2018-10-04T11:54:38.328Z,7156.00
2018-10-04T11:55:38.336Z,6560.00
2018-10-04T11:56:38.397Z,6316.00
2018-10-04T11:57:38.376Z,6148.00
2018-10-04T11:58:38.398Z,5792.00
2018-10-04T11:59:38.412Z,5544.00
2018-10-04T12:00:38.430Z,5484.00
2018-10-04T12:01:38.483Z,5588.00
2018-10-04T12:02:38.486Z,5564.00
2018-10-04T12:03:38.482Z,5572.00
2018-10-04T12:04:38.512Z,5744.00
2018-10-04T12:05:38.532Z,6008.00
2018-10-04T12:06:38.597Z,6268.00
2018-10-04T12:07:38.581Z,6372.00
2018-10-04T12:08:38.578Z,6472.00
2018-10-04T12:09:38.607Z,6408.00
2018-10-04T12:10:38.636Z,6200.00
2018-10-04T12:11:38.635Z,6048.00
2018-10-04T12:12:38.722Z,5992.00
2018-10-04T12:13:38.676Z,6236.00
2018-10-04T12:14:38.697Z,6340.00
2018-10-04T12:15:38.712Z,5832.00
2018-10-04T12:16:38.737Z,5456.00
2018-10-04T12:17:38.747Z,5420.00
2018-10-04T12:18:38.848Z,5380.00
2018-10-04T12:19:38.787Z,5300.00
2018-10-04T12:20:38.800Z,5284.00
2018-10-04T12:21:38.827Z,5448.00
2018-10-04T12:22:38.853Z,5512.00
2018-10-04T12:23:38.860Z,5544.00
2018-10-04T12:24:38.900Z,5528.00
2018-10-04T12:25:38.918Z,5444.00
2018-10-04T12:26:38.928Z,5408.00
2018-10-04T12:27:38.938Z,5460.00
2018-10-04T12:28:38.951Z,5540.00
2018-10-04T12:29:38.978Z,5936.00
2018-10-04T12:30:39.059Z,6456.00
2018-10-04T12:31:39.013Z,6808.00
2018-10-04T12:32:39.033Z,6860.00
2018-10-04T12:33:39.056Z,7064.00
2018-10-04T12:34:39.078Z,7348.00
2018-10-04T12:35:39.089Z,7720.00
2018-10-04T12:36:39.107Z,7944.00